Ingalls, IN (46048)

8:16 AM EST on February 12, 2016 (GMT -0500)
Rogers Home Place | | Change Station
CLOSE
Current Station
Personal Weather Station
Location: Pendleton, IN
Elevation: 889 ft
Nearby Weather Stations

Elev 889 ft 39.98 °N, 85.73 °W | Updated 13 minutes ago

Overcast
Overcast
18.3 °F
Feels Like 18 °F
N
0.0
Wind Variable Wind from West
Gusts 0.0 mph

Today
High -- | Low -- °F
--% Chance of Precip.
Yesterday
High -- | Low -- °F
Precip. -- in
Pressure 30.17 in
Visibility 10.0 miles
Clouds Overcast 6000 ft
Windchill 18 °F
Dew Point 14 °F
Humidity 84%
Rainfall 0.00 in
Snow Depth Not available.
7:40 AM 6:15 PM
Waxing Crescent, 20% visible
METAR KMQJ 121255Z AUTO 20003KT 10SM OVC060 M07/M12 A3017 RMK AO1
Pressure 30.17 in
Visibility 10.0 miles
Clouds Overcast 6000 ft
Windchill 18 °F
Dew Point 14 °F
Humidity 84%
Rainfall 0.00 in
Snow Depth Not available.
7:40 AM 6:15 PM
Waxing Crescent, 20% visible
METAR KMQJ 121255Z AUTO 20003KT 10SM OVC060 M07/M12 A3017 RMK AO1

10-Day Weather Forecast

Almanac

Astronomy

Feb. 12, 2016 Rise Set
Actual Time
Civil Twilight
Nautical Twilight
Astronomical Twilight
Moon
Length of Visible Light
Length of Day
Tomorrow will be .
, % of the Moon is Illuminated

Today's Extremes

State Highs State Lows

Community

WunderPhotos

Upload Photos

1,892,309 photos uploaded!

WunderBlog® & News

Nearby

Air Quality

  Air Quality AQ Index Pollutant
Not available.

Snow Depth

Station Depth Elevation

Earthquake Activity

City Distance Mag. Time & Date
Minimum magnitude displayed is 2.5.

Coastal Water Temperatures

Place Temperature

Stations

Nearby Weather Stations

Station Location Temp. Windchill Dew Point Humidity Wind Precip. Elev Updated Type
                   

Watches & Warnings

There are currently no watches in effect.